Nearby METAR Reports


Data Updates Approximately Every Four Hours

METAR is the international standard code format for hourly surface weather observations which is analogous to the SA coding currently used in the US. The acronym roughly translates from French as Aviation Routine Weather Report. SPECI is merely the code name given to METAR formatted products which are issued on a special non-routine basis as dictated by changing meteorological conditions. The SPECI acronym roughly translates as Aviation Selected Special Weather Report.

KSLH - Cheboygan, Michigan, USA
Distance from station: W 9mi, 14km
Updated: 04/22/2021 10:55am
Clear
Clear
 Wind from WSW
Wind: WSW 9 mph , 15 km/h
Temperature: 39°F , 4°C
Wind Chill: 33°F , 1°C
Dew Point: 18°F , -8°C
Humidity: 42%
Barometer: 29.98 inHg , 1015.2 hPa
Clouds: Clear
Visibility: 10 miles , 16 km
2021/04/22 14:55 KSLH 221455Z AUTO 25008KT 230V320 10SM CLR 04/M08 A2998 RMK
KMCD - Mackinac Island, Michigan, USA
Distance from station: NW 19mi, 31km
Updated: 04/22/2021 10:55am
Clear
Clear
 Wind from WSW
Wind: WSW 12 mph , 19 km/h
Temperature: 37°F , 3°C
Wind Chill: 29°F , -2°C
Dew Point: 21°F , -6°C
Humidity: 52%
Barometer: 29.98 inHg , 1015.2 hPa
Clouds: Clear
Visibility: 10 miles , 16 km
2021/04/22 14:55 KMCD 221455Z AUTO 24010KT 10SM CLR 03/M06 A2998 RMK AO2 T00281062
 
KPLN - Pellston, Michigan, USA
Distance from station: WSW 24mi, 38km
Updated: 04/22/2021 10:54am
Clear
Clear
 Wind from NW
Wind: NW 13 mph , 20 km/h, Gust: 23 mph , 37 km/h
Temperature: 39°F , 4°C
Wind Chill: 31°F , -1°C
Dew Point: 18°F , -8°C
Humidity: 42%
Barometer: 30.00 inHg , 1015.9 hPa
Clouds: Clear
Visibility: 10 miles , 16 km
2021/04/22 14:54 KPLN 221454Z AUTO 31011G20KT 10SM CLR 04/M08 A3000 RMK AO2 SLP166 T00441083 50002
KPZQ - Rogers City, Michigan, USA
Distance from station: SE 31mi, 50km
Updated: 04/22/2021 10:55am
Partly cloudy
Partly cloudy
 Wind from WNW
Wind: WNW 10 mph , 17 km/h
Temperature: 37°F , 3°C
Wind Chill: 30°F , -1°C
Dew Point: 19°F , -7°C
Humidity: 48%
Barometer: 30.00 inHg , 1015.9 hPa
Clouds: Partly cloudy
Visibility: 10 miles , 16 km
Cloud details: Partly cloudy 3900 ft
Partly cloudy 6000 ft
Partly cloudy 12000 ft
2021/04/22 14:55 KPZQ 221455Z AUTO 29009KT 260V320 10SM SCT039 SCT060 SCT120 03/M07 A3000 RMK AO2 T00271071
 
KMGN - Harbor Springs, Michigan, USA
Distance from station: WSW 32mi, 52km
Updated: 04/22/2021 10:55am
Partly cloudy
Partly cloudy
 Wind from WSW
Wind: WSW 9 mph , 15 km/h, Gust: 17 mph , 28 km/h
Temperature: 37°F , 3°C
Wind Chill: 30°F , -1°C
Dew Point: 23°F , -5°C
Humidity: 56%
Barometer: 30.01 inHg , 1016.3 hPa
Clouds: Partly cloudy
Visibility: 10 miles , 16 km
Cloud details: Partly cloudy 4300 ft
2021/04/22 14:55 KMGN 221455Z AUTO 24008G15KT 10SM SCT043 03/M05 A3001 RMK AO2 T00321057
KDRM - Drummond Is, Michigan, USA
Distance from station: NE 36mi, 59km
Updated: 04/22/2021 10:55am
Mostly cloudy
Mostly cloudy
 Wind from W
Wind: W 7 mph , 11 km/h
Temperature: 36°F , 2°C
Wind Chill: 30°F , -1°C
Dew Point: 18°F , -8°C
Humidity: 48%
Barometer: 29.97 inHg , 1014.9 hPa
Clouds: Mostly cloudy
Visibility: 10 miles , 16 km
Cloud details: Mostly cloudy 11000 ft
2021/04/22 14:55 KDRM 221455Z AUTO 27006KT 230V290 10SM BKN110 02/M08 A2997 RMK AO2 T00221081
 
KCIU - Chippewa Intl, Michigan, USA
Distance from station: N 41mi, 66km
Updated: 04/22/2021 10:56am
Partly cloudy
Partly cloudy
 Wind from varies
Wind: varies 7 mph , 11 km/h
Temperature: 37°F , 3°C
Wind Chill: 32°F , 0°C
Dew Point: 18°F , -8°C
Humidity: 45%
Barometer: 29.96 inHg , 1014.6 hPa
Clouds: Partly cloudy
Visibility: 10 miles , 16 km
Cloud details: Partly cloudy 12000 ft
2021/04/22 14:56 KCIU 221456Z AUTO VRB06KT 10SM SCT120 03/M08 A2996 RMK AO2 SLP155 T00281083 58003
KGLR - Gaylord, Michigan, USA
Distance from station: SSW 48mi, 77km
Updated: 04/22/2021 10:53am
Mostly cloudy
Mostly cloudy
 Wind from WNW
Wind: WNW 12 mph , 19 km/h, Gust: 22 mph , 35 km/h
Temperature: 36°F , 2°C
Wind Chill: 28°F , -2°C
Dew Point: 16°F , -9°C
Humidity: 44%
Barometer: 29.98 inHg , 1015.2 hPa
Clouds: Mostly cloudy
Visibility: 10 miles , 16 km
Cloud details: Mostly cloudy 3900 ft
2021/04/22 14:53 KGLR 221453Z AUTO 29010G19KT 10SM BKN039 02/M09 A2998 RMK AO2 SLP168 T00221094 51008
 
KCVX - Charlevoix, Michigan, USA
Distance from station: WSW 52mi, 83km
Updated: 04/22/2021 10:55am
Clear
Clear
 Wind from W
Wind: W 13 mph , 20 km/h, Gust: 17 mph , 28 km/h
Temperature: 41°F , 5°C
Wind Chill: 34°F , 1°C
Dew Point: 23°F , -5°C
Humidity: 49%
Barometer: 30.02 inHg , 1016.6 hPa
Clouds: Clear
Visibility: 10 miles , 16 km
2021/04/22 14:55 KCVX 221455Z AUTO 27011G15KT 10SM CLR 05/M05 A3002 RMK AO2 T00511050
KANJ - Sault Ste Marie, Michigan, USA
Distance from station: N 56mi, 89km
Updated: 04/22/2021 10:55am
Partly cloudy
Partly cloudy
 Wind from WSW
Wind: WSW 9 mph , 15 km/h
Temperature: 39°F , 4°C
Wind Chill: 33°F , 1°C
Dew Point: 16°F , -9°C
Humidity: 39%
Barometer: 29.95 inHg , 1014.2 hPa
Clouds: Partly cloudy
Visibility: 10 miles , 16 km
Cloud details: Partly cloudy 12000 ft
2021/04/22 14:55 KANJ 221455Z AUTO 25008KT 10SM SCT120 04/M09 A2995 RMK AO2 SLP146 T00391089 50000
 
KAPN - Alpena, Michigan, USA
Distance from station: SE 56mi, 89km
Updated: 04/22/2021 10:54am
Mostly cloudy
Mostly cloudy
 Wind from NW
Wind: NW 10 mph , 17 km/h, Gust: 18 mph , 30 km/h
Temperature: 36°F , 2°C
Wind Chill: 29°F , -2°C
Dew Point: 18°F , -8°C
Humidity: 48%
Barometer: 30.00 inHg , 1015.9 hPa
Clouds: Mostly cloudy
Visibility: 10 miles , 16 km
Cloud details: Mostly cloudy 4200 ft
2021/04/22 14:54 KAPN 221454Z 31009G16KT 10SM BKN042 02/M08 A3000 RMK AO2 SLP166 T00221083 53004
CYAM - Sault Ste Marie, Ontario, Canada
Distance from station: N 56mi, 90km
Updated: 04/22/2021 11:00am
Mostly cloudy
Mostly cloudy
 Wind from WSW
Wind: WSW 6 mph , 9 km/h
Temperature: 37°F , 3°C
Wind Chill: 32°F , 0°C
Dew Point: 16°F , -9°C
Humidity: 41%
Barometer: 29.95 inHg , 1014.2 hPa
Clouds: Mostly cloudy
Visibility: 25 miles , 40 km
Cloud details: Few Clouds 4000 ft
Few Clouds 6200 ft
Partly cloudy 11000 ft
Mostly cloudy 26000 ft
2021/04/22 15:00 CYAM 221500Z 24005KT 170V260 25SM FEW040 FEW062 SCT110 BKN260 03/M09 A2995 RMK CU1SC2AC1CI2 CU TR SLP154
 
KSJX - Beaver Island, Michigan, USA
Distance from station: W 60mi, 96km
Updated: 04/22/2021 10:55am
Clear
Clear
 Wind from WSW
Wind: WSW 14 mph , 22 km/h
Temperature: 41°F , 5°C
Wind Chill: 33°F , 1°C
Dew Point: 23°F , -5°C
Humidity: 49%
Barometer: 30.00 inHg , 1015.9 hPa
Clouds: Clear
Visibility: 10 miles , 16 km
2021/04/22 14:55 KSJX 221455Z AUTO 25012KT 10SM CLR 05/M05 A3000 RMK AO2 T00451050
KACB - Bellaire, Michigan, USA
Distance from station: SW 63mi, 102km
Updated: 04/22/2021 10:55am
Mostly cloudy
Mostly cloudy
 Wind from W
Wind: W 8 mph , 13 km/h, Gust: 17 mph , 28 km/h
Temperature: 39°F , 4°C
Wind Chill: 33°F , 1°C
Dew Point: 19°F , -7°C
Humidity: 45%
Barometer: 30.03 inHg , 1016.9 hPa
Clouds: Mostly cloudy
Visibility: 10 miles , 16 km
Cloud details: Mostly cloudy 4600 ft
Mostly cloudy 5000 ft
2021/04/22 14:55 KACB 221455Z AUTO 26007G15KT 240V330 10SM BKN046 BKN050 04/M07 A3003 RMK AO2 T00411072
 
CWNL - Great Duck Island, Ontario, Canada
Distance from station: E 66mi, 106km
Updated: 04/22/2021 10:00am

 Wind from NW
Wind: NW 8 mph , 13 km/h
Temperature: 34°F , 1°C
Wind Chill: 27°F , -3°C
Dew Point: 23°F , -5°C
Humidity: 65%
2021/04/22 14:00 CWNL 221400Z AUTO 32007KT 01/M05 RMK AO1 SLP153 T00091053 51007
KERY - Newberry, Michigan, USA
Distance from station: NW 69mi, 112km
Updated: 04/22/2021 10:55am
Clear
Clear
 Wind from W
Wind: W 10 mph , 17 km/h
Temperature: 39°F , 4°C
Wind Chill: 32°F , 0°C
Dew Point: 21°F , -6°C
Humidity: 48%
Barometer: 29.96 inHg , 1014.6 hPa
Clouds: Clear
Visibility: 10 miles , 16 km
2021/04/22 14:55 KERY 221455Z AUTO 28009KT 10SM CLR 04/M06 A2996 RMK AO2 T00401065
 
KGOV - Grayling Af, Michigan, USA
Distance from station: SSW 70mi, 113km
Updated: 04/22/2021 10:58am
Partly cloudy
Partly cloudy
 Wind from W
Wind: W 10 mph , 17 km/h
Temperature: 36°F , 2°C
Wind Chill: 29°F , -2°C
Dew Point: 19°F , -7°C
Humidity: 52%
Barometer: 29.99 inHg , 1015.6 hPa
Clouds: Partly cloudy
Visibility: 10 miles , 16 km
Cloud details: Partly cloudy 4200 ft
2021/04/22 14:58 KGOV 221458Z AUTO 28009KT 10SM SCT042 02/M07 A2999 RMK AO2 SLP176 T00241073 51007 $